Kursk, Russia
Current Conditions -  °F | °C
As of 11:00 PM on Monday 24 Nov 2014 (Local Time) from UUOB Reporting Station
Broken Clouds Broken Clouds  
Wind Chill: 11°   Ceiling: 2300
Heat Index: 23°   Visibility: 6mi
Dew Point: 19°   Wind: 13mph
Humidity: 86%   Direction: 90°E
Pressure: 30.62"   Gusts: NA
Location:  51.73°N, 36.19°E
Report Text: UUOB 242000Z 09006MPS 9999 BKN023 M05/M07 Q1037 11190060 NOSIG
Loading
Personal Weather Stations






























Interactive Weather Map New forecast layout! Learn more

10-Day Weather Forecast

Advertisements
Track Severe Weather on mobile